createdAt,value
2023-01-03T00:02:53.650Z,96.63
2023-01-03T00:06:01.035Z,96.16
2023-01-03T00:09:06.603Z,96.86
2023-01-03T00:12:31.275Z,96.86
2023-01-03T00:15:30.869Z,96.50
2023-01-03T00:18:23.362Z,96.41
2023-01-03T00:21:29.132Z,96.05
2023-01-03T00:24:35.117Z,96.50
2023-01-03T00:27:40.612Z,96.08
2023-01-03T00:30:46.119Z,96.49
2023-01-03T00:33:53.614Z,97.22
2023-01-03T00:36:59.730Z,96.06
2023-01-03T00:40:05.964Z,96.97
2023-01-03T00:43:30.316Z,97.16
2023-01-03T00:46:37.086Z,97.32
2023-01-03T00:49:42.252Z,97.98
2023-01-03T00:52:48.815Z,97.96
2023-01-03T00:55:55.246Z,98.67
2023-01-03T00:59:00.950Z,98.49
2023-01-03T01:02:11.729Z,98.88
2023-01-03T01:05:18.054Z,99.46
2023-01-03T01:08:25.090Z,98.92
2023-01-03T01:11:31.587Z,99.57
2023-01-03T01:14:39.763Z,99.79
2023-01-03T01:17:45.567Z,99.65
2023-01-03T01:20:53.489Z,98.71
2023-01-03T01:23:58.691Z,97.62
2023-01-03T01:27:05.671Z,97.11
2023-01-03T01:30:04.146Z,98.08
2023-01-03T01:33:10.312Z,98.48
2023-01-03T01:36:24.932Z,98.38
2023-01-03T01:39:34.477Z,98.80
2023-01-03T01:42:57.215Z,99.85
2023-01-03T01:46:03.368Z,99.81
2023-01-03T01:49:18.249Z,99.45
2023-01-03T01:52:24.504Z,99.13
2023-01-03T01:55:36.791Z,98.32
2023-01-03T01:58:47.320Z,97.40
2023-01-03T02:01:53.332Z,97.23
2023-01-03T02:04:58.430Z,97.45
2023-01-03T02:08:05.944Z,97.39
2023-01-03T02:11:33.333Z,97.97
2023-01-03T02:14:51.972Z,98.00
2023-01-03T02:18:08.950Z,97.09
2023-01-03T02:21:31.010Z,96.66
2023-01-03T02:25:18.798Z,97.54
2023-01-03T02:28:44.153Z,97.66
2023-01-03T02:32:13.615Z,98.98
2023-01-03T02:35:35.548Z,99.29
2023-01-03T02:39:01.835Z,99.63
2023-01-03T02:42:38.327Z,99.16
2023-01-03T02:45:56.025Z,98.90
2023-01-03T02:49:24.026Z,99.64
2023-01-03T02:52:39.442Z,100.00
2023-01-03T02:55:46.466Z,98.54
2023-01-03T02:58:52.664Z,98.14
2023-01-03T03:01:58.536Z,97.06
2023-01-03T03:05:07.201Z,96.75
2023-01-03T03:08:13.112Z,95.96
2023-01-03T03:11:36.547Z,96.07
2023-01-03T03:14:57.775Z,97.04
2023-01-03T03:18:06.201Z,97.92
2023-01-03T03:21:29.116Z,98.48
2023-01-03T03:24:58.776Z,98.58
2023-01-03T03:28:24.074Z,97.81
2023-01-03T03:31:48.177Z,97.38
2023-01-03T03:34:54.890Z,98.45
2023-01-03T03:38:02.338Z,98.01
2023-01-03T03:41:52.075Z,97.20
2023-01-03T03:45:08.150Z,97.82
2023-01-03T03:48:24.576Z,97.84
2023-01-03T03:51:30.015Z,97.39
2023-01-03T03:54:35.761Z,97.56
2023-01-03T03:57:57.420Z,97.58
2023-01-03T04:01:03.611Z,97.87
2023-01-03T04:04:10.244Z,98.10
2023-01-03T04:07:15.774Z,98.11
2023-01-03T04:10:24.646Z,98.87
2023-01-03T04:13:30.821Z,99.25
2023-01-03T04:16:35.969Z,98.19
2023-01-03T04:19:40.925Z,98.39
2023-01-03T04:22:46.875Z,98.76
2023-01-03T04:25:52.900Z,98.72
2023-01-03T04:28:58.955Z,99.34
2023-01-03T04:32:04.974Z,98.49
2023-01-03T04:35:11.151Z,99.21
2023-01-03T04:38:17.734Z,100.00
2023-01-03T04:41:24.056Z,100.00
2023-01-03T04:44:30.361Z,100.00
2023-01-03T04:47:35.856Z,100.00
2023-01-03T04:50:41.639Z,99.70
2023-01-03T04:53:46.909Z,98.90
2023-01-03T04:56:53.342Z,97.56
2023-01-03T05:00:00.580Z,97.31
2023-01-03T05:03:07.294Z,96.62
2023-01-03T05:06:17.104Z,96.49
2023-01-03T05:09:23.005Z,95.90
2023-01-03T05:12:28.322Z,95.68
2023-01-03T05:15:33.318Z,95.43
2023-01-03T05:18:39.186Z,95.07
2023-01-03T05:22:03.138Z,95.37
2023-01-03T05:25:26.752Z,95.23
2023-01-03T05:28:36.423Z,95.41
2023-01-03T05:31:41.586Z,95.13
2023-01-03T05:34:47.630Z,95.10
2023-01-03T05:37:53.810Z,96.83
2023-01-03T05:41:00.963Z,97.88
2023-01-03T05:44:05.680Z,98.44
2023-01-03T05:47:12.211Z,98.06
2023-01-03T05:50:17.521Z,97.51
2023-01-03T05:53:25.209Z,96.41
2023-01-03T05:56:30.895Z,95.87
2023-01-03T05:59:36.641Z,96.25
2023-01-03T06:02:42.967Z,95.52
2023-01-03T06:05:50.325Z,95.18
2023-01-03T06:08:55.454Z,95.47
2023-01-03T06:12:02.571Z,95.40
2023-01-03T06:15:08.608Z,95.48
2023-01-03T06:18:14.982Z,95.26
2023-01-03T06:21:20.151Z,95.67
2023-01-03T06:24:26.019Z,95.57
2023-01-03T06:27:31.955Z,95.34
2023-01-03T06:30:38.282Z,95.46
2023-01-03T06:33:45.133Z,96.15
2023-01-03T06:36:50.483Z,95.91
2023-01-03T06:39:56.719Z,97.24
2023-01-03T06:42:56.537Z,97.59
2023-01-03T06:46:06.728Z,97.51
2023-01-03T06:49:30.470Z,97.20
2023-01-03T06:52:53.305Z,97.25
2023-01-03T06:55:59.614Z,97.42
2023-01-03T06:59:04.575Z,97.66
2023-01-03T07:02:11.100Z,98.33
2023-01-03T07:05:17.195Z,97.70
2023-01-03T07:08:22.947Z,97.36
2023-01-03T07:11:29.977Z,98.32
2023-01-03T07:14:35.939Z,99.51
2023-01-03T07:17:41.029Z,99.03
2023-01-03T07:20:46.077Z,98.25
2023-01-03T07:23:51.936Z,97.48
2023-01-03T07:27:17.140Z,98.44
2023-01-03T07:30:23.417Z,99.12
2023-01-03T07:33:29.023Z,99.82
2023-01-03T07:36:35.393Z,99.67
2023-01-03T07:39:40.285Z,99.76
2023-01-03T07:43:04.993Z,99.71
2023-01-03T07:46:09.698Z,99.49
2023-01-03T07:49:15.122Z,100.00
2023-01-03T07:52:20.995Z,100.00
2023-01-03T07:55:27.008Z,100.00
2023-01-03T07:58:33.096Z,99.40
2023-01-03T08:01:39.692Z,99.30
2023-01-03T08:04:38.908Z,100.00
2023-01-03T08:07:44.749Z,99.94
2023-01-03T08:11:08.250Z,99.84
2023-01-03T08:14:14.304Z,98.90
2023-01-03T08:17:20.197Z,99.26
2023-01-03T08:20:26.110Z,98.96
2023-01-03T08:23:32.275Z,98.28
2023-01-03T08:26:39.426Z,98.35
2023-01-03T08:29:45.289Z,97.34
2023-01-03T08:32:51.736Z,97.01
2023-01-03T08:36:01.965Z,97.25
2023-01-03T08:39:11.549Z,98.09
2023-01-03T08:42:19.189Z,97.32
2023-01-03T08:45:26.906Z,97.25
2023-01-03T08:48:33.737Z,96.87
2023-01-03T08:51:38.489Z,96.68
2023-01-03T08:54:46.245Z,97.73
2023-01-03T08:57:52.863Z,97.14
2023-01-03T09:04:24.096Z,96.96
2023-01-03T09:07:32.089Z,96.79
2023-01-03T09:10:42.199Z,96.51
2023-01-03T09:13:45.419Z,96.52
2023-01-03T09:16:50.564Z,96.22
2023-01-03T09:19:55.851Z,95.90
2023-01-03T09:23:01.477Z,95.71
2023-01-03T09:26:07.643Z,95.39
2023-01-03T09:29:12.780Z,95.00
2023-01-03T09:32:18.903Z,94.37
2023-01-03T09:35:24.610Z,93.29
2023-01-03T09:38:30.533Z,93.15
2023-01-03T09:41:42.231Z,92.43
2023-01-03T09:44:48.729Z,92.44
2023-01-03T09:47:54.268Z,92.29
2023-01-03T09:51:21.241Z,91.93
2023-01-03T09:54:27.736Z,91.04
2023-01-03T09:58:00.135Z,89.72
2023-01-03T10:01:23.113Z,89.30
2023-01-03T10:05:01.439Z,89.02
2023-01-03T10:08:34.483Z,88.63
2023-01-03T10:11:48.545Z,88.02
2023-01-03T10:15:19.042Z,88.20
2023-01-03T10:18:36.081Z,88.07
2023-01-03T10:22:27.241Z,88.06
2023-01-03T10:25:36.736Z,87.79
2023-01-03T10:28:47.514Z,87.10
2023-01-03T10:32:26.024Z,86.39
2023-01-03T10:35:45.626Z,86.13
2023-01-03T10:38:53.439Z,86.19
2023-01-03T10:42:01.072Z,85.81
2023-01-03T10:45:26.333Z,87.22
2023-01-03T10:48:36.244Z,87.81
2023-01-03T10:51:58.841Z,87.15
2023-01-03T10:55:10.487Z,86.50
2023-01-03T10:58:20.109Z,87.15
2023-01-03T11:01:35.686Z,86.91
2023-01-03T11:04:43.086Z,87.75
2023-01-03T11:07:48.946Z,87.54
2023-01-03T11:11:13.483Z,87.40
2023-01-03T11:14:37.114Z,87.37
2023-01-03T11:17:43.190Z,87.78
2023-01-03T11:21:30.061Z,88.15
2023-01-03T11:24:43.366Z,88.41
2023-01-03T11:28:24.429Z,88.36
2023-01-03T11:31:55.288Z,87.83
2023-01-03T11:35:56.821Z,87.95
2023-01-03T11:39:24.686Z,88.06
2023-01-03T11:42:54.383Z,87.86
2023-01-03T11:46:07.871Z,87.91
2023-01-03T11:49:44.042Z,87.94
2023-01-03T11:53:06.741Z,87.62
2023-01-03T11:56:32.989Z,87.41
2023-01-03T12:00:05.918Z,87.48
2023-01-03T12:03:31.614Z,87.30
2023-01-03T12:07:37.020Z,87.19
2023-01-03T12:10:22.580Z,87.04
2023-01-03T12:13:38.077Z,87.08
2023-01-03T12:17:01.300Z,86.93
2023-01-03T12:20:18.247Z,87.24
2023-01-03T12:23:48.900Z,87.51
2023-01-03T12:26:57.319Z,87.07
2023-01-03T12:30:29.511Z,87.08
2023-01-03T12:34:04.262Z,86.44
2023-01-03T12:37:34.192Z,86.43
2023-01-03T12:41:07.959Z,86.46
2023-01-03T12:44:27.075Z,85.96
2023-01-03T12:47:55.462Z,86.14
2023-01-03T12:51:06.887Z,86.63
2023-01-03T12:54:43.272Z,87.50
2023-01-03T12:58:08.504Z,87.40
2023-01-03T13:01:22.615Z,87.93
2023-01-03T13:04:34.278Z,88.70
2023-01-03T13:07:44.169Z,89.04
2023-01-03T13:10:52.439Z,89.66
2023-01-03T13:14:19.812Z,90.55
2023-01-03T13:17:32.666Z,90.43
2023-01-03T13:20:50.257Z,90.81
2023-01-03T13:24:14.468Z,89.86
2023-01-03T13:27:37.707Z,89.76
2023-01-03T13:30:45.402Z,89.72
2023-01-03T13:34:00.153Z,90.20
2023-01-03T13:37:24.976Z,90.28
2023-01-03T13:41:16.586Z,90.79
2023-01-03T13:43:52.227Z,90.71
2023-01-03T13:46:58.933Z,90.50
2023-01-03T13:50:04.956Z,91.29
2023-01-03T13:53:25.428Z,91.98
2023-01-03T13:56:31.176Z,93.35
2023-01-03T13:59:50.947Z,93.88
2023-01-03T14:03:16.984Z,93.71
2023-01-03T14:06:56.372Z,93.78
2023-01-03T14:10:15.106Z,94.48
2023-01-03T14:13:29.772Z,95.47
2023-01-03T14:16:43.228Z,94.85
2023-01-03T14:19:54.258Z,94.88
2023-01-03T14:23:11.625Z,95.13
2023-01-03T14:26:08.593Z,95.73
2023-01-03T14:29:19.322Z,96.41
2023-01-03T14:32:44.522Z,96.36
2023-01-03T14:35:55.891Z,96.06
2023-01-03T14:39:06.661Z,96.62
2023-01-03T14:42:10.355Z,96.84
2023-01-03T14:45:18.348Z,96.31
2023-01-03T14:48:28.259Z,96.74
2023-01-03T14:51:34.808Z,97.48
2023-01-03T14:54:40.962Z,97.12
2023-01-03T14:57:51.881Z,97.29
2023-01-03T15:00:59.657Z,97.63
2023-01-03T15:04:05.047Z,97.83
2023-01-03T15:07:16.836Z,97.84
2023-01-03T15:10:28.466Z,98.14
2023-01-03T15:13:47.013Z,98.85
2023-01-03T15:16:55.617Z,99.09
2023-01-03T15:20:09.300Z,99.62
2023-01-03T15:23:15.241Z,100.00
2023-01-03T15:26:22.110Z,100.00
2023-01-03T15:29:36.895Z,100.00
2023-01-03T15:32:42.166Z,100.00
2023-01-03T15:35:53.690Z,100.00
2023-01-03T15:39:00.348Z,100.00
2023-01-03T15:42:50.209Z,100.00
2023-01-03T15:45:40.869Z,99.94
2023-01-03T15:48:48.156Z,99.69
2023-01-03T15:51:54.727Z,99.42
2023-01-03T15:55:00.550Z,98.70
2023-01-03T15:58:06.085Z,98.88
2023-01-03T16:01:11.902Z,99.04
2023-01-03T16:04:19.327Z,99.26
2023-01-03T16:07:25.836Z,99.62
2023-01-03T16:10:31.724Z,99.82
2023-01-03T16:13:38.844Z,100.00
2023-01-03T16:16:48.056Z,100.00
2023-01-03T16:19:53.617Z,100.00
2023-01-03T16:23:03.351Z,100.00
2023-01-03T16:26:09.778Z,100.00
2023-01-03T16:29:15.603Z,100.00
2023-01-03T16:32:21.361Z,100.00
2023-01-03T16:35:34.017Z,100.00
2023-01-03T16:38:39.815Z,100.00
2023-01-03T16:41:45.468Z,99.87
2023-01-03T16:44:52.263Z,99.73
2023-01-03T16:47:57.595Z,100.00
2023-01-03T16:51:04.846Z,99.89
2023-01-03T16:54:12.019Z,100.00
2023-01-03T16:57:17.447Z,99.89
2023-01-03T17:00:31.617Z,99.52
2023-01-03T17:03:41.754Z,99.12
2023-01-03T17:06:46.049Z,99.08
2023-01-03T17:09:51.443Z,98.79
2023-01-03T17:12:57.427Z,99.31
2023-01-03T17:16:03.965Z,99.63
2023-01-03T17:19:09.385Z,100.00
2023-01-03T17:22:16.813Z,99.19
2023-01-03T17:25:24.379Z,99.18
2023-01-03T17:28:29.939Z,99.03
2023-01-03T17:31:38.085Z,98.98
2023-01-03T17:34:45.410Z,98.21
2023-01-03T17:38:23.991Z,98.68
2023-01-03T17:41:04.273Z,98.57
2023-01-03T17:44:09.817Z,98.81
2023-01-03T17:47:54.324Z,99.38
2023-01-03T17:51:00.317Z,98.89
2023-01-03T17:54:05.709Z,99.73
2023-01-03T17:57:14.223Z,98.95
2023-01-03T18:00:34.405Z,98.50
2023-01-03T18:03:40.450Z,98.34
2023-01-03T18:06:47.773Z,98.32
2023-01-03T18:09:53.195Z,98.44
2023-01-03T18:12:58.258Z,98.73
2023-01-03T18:16:03.430Z,99.04
2023-01-03T18:19:08.253Z,99.28
2023-01-03T18:22:13.584Z,99.21
2023-01-03T18:25:23.187Z,99.49
2023-01-03T18:28:28.585Z,99.98
2023-01-03T18:31:34.759Z,99.96
2023-01-03T18:34:40.137Z,100.00
2023-01-03T18:37:48.889Z,99.59
2023-01-03T18:41:00.703Z,99.52
2023-01-03T18:44:03.376Z,99.23
2023-01-03T18:47:09.525Z,98.56
2023-01-03T18:50:15.771Z,98.43
2023-01-03T18:53:22.775Z,97.57
2023-01-03T18:56:41.885Z,97.66
2023-01-03T18:59:47.208Z,97.19
2023-01-03T19:02:53.845Z,96.80
2023-01-03T19:06:02.627Z,96.45
2023-01-03T19:09:08.876Z,96.65
2023-01-03T19:12:15.692Z,96.49
2023-01-03T19:15:41.523Z,95.75
2023-01-03T19:18:47.512Z,95.66
2023-01-03T19:21:55.823Z,95.66
2023-01-03T19:25:01.251Z,95.76
2023-01-03T19:28:06.800Z,95.42
2023-01-03T19:31:11.918Z,95.23
2023-01-03T19:34:18.590Z,95.31
2023-01-03T19:37:24.809Z,95.48
2023-01-03T19:40:30.900Z,95.37
2023-01-03T19:43:36.788Z,96.32
2023-01-03T19:46:42.555Z,96.51
2023-01-03T19:49:50.392Z,96.93
2023-01-03T19:52:56.961Z,97.04
2023-01-03T19:56:03.828Z,97.47
2023-01-03T19:59:09.924Z,98.42
2023-01-03T20:02:30.939Z,98.02
2023-01-03T20:05:37.844Z,97.96
2023-01-03T20:08:43.075Z,98.20
2023-01-03T20:11:49.082Z,98.37
2023-01-03T20:14:55.065Z,99.11
2023-01-03T20:18:00.804Z,99.08
2023-01-03T20:21:09.340Z,99.43
2023-01-03T20:24:16.419Z,99.17
2023-01-03T20:27:27.246Z,98.66
2023-01-03T20:30:33.908Z,99.34
2023-01-03T20:33:40.501Z,99.10
2023-01-03T20:36:58.518Z,99.00
2023-01-03T20:40:03.808Z,100.00
2023-01-03T20:43:10.822Z,100.00
2023-01-03T20:46:17.842Z,100.00
2023-01-03T20:49:33.986Z,100.00
2023-01-03T20:52:40.237Z,99.92
2023-01-03T20:55:45.344Z,98.58
2023-01-03T20:58:51.817Z,98.55
2023-01-03T21:01:59.605Z,97.66
2023-01-03T21:05:05.356Z,97.93
2023-01-03T21:08:28.732Z,98.15
2023-01-03T21:11:40.433Z,98.71
2023-01-03T21:14:46.314Z,98.92
2023-01-03T21:17:52.691Z,100.00
2023-01-03T21:20:59.217Z,100.00
2023-01-03T21:24:06.326Z,100.00
2023-01-03T21:27:11.919Z,99.87
2023-01-03T21:30:17.277Z,99.38
2023-01-03T21:33:28.704Z,100.00
2023-01-03T21:36:47.662Z,100.00
2023-01-03T21:39:53.175Z,99.80
2023-01-03T21:43:12.307Z,100.00
2023-01-03T21:46:21.331Z,98.64
2023-01-03T21:49:26.821Z,99.28
2023-01-03T21:52:35.280Z,97.99
2023-01-03T21:55:41.487Z,96.98
2023-01-03T21:58:47.155Z,90.02
2023-01-03T22:02:11.542Z,87.62
2023-01-03T22:05:18.116Z,90.79
2023-01-03T22:08:24.758Z,91.96
2023-01-03T22:11:31.771Z,92.18
2023-01-03T22:14:36.335Z,92.25
2023-01-03T22:17:42.749Z,92.30
2023-01-03T22:20:49.393Z,92.11
2023-01-03T22:23:54.766Z,91.22
2023-01-03T22:27:01.897Z,90.87
2023-01-03T22:30:08.442Z,90.57
2023-01-03T22:33:13.470Z,89.05
2023-01-03T22:36:19.828Z,88.55
2023-01-03T22:39:25.259Z,88.24
2023-01-03T22:42:31.934Z,87.86
2023-01-03T22:45:36.920Z,87.36
2023-01-03T22:48:43.215Z,88.96
2023-01-03T22:51:48.776Z,90.37
2023-01-03T22:54:54.613Z,90.00
2023-01-03T22:58:00.743Z,89.91
2023-01-03T23:01:07.159Z,91.29
2023-01-03T23:04:14.884Z,90.12
2023-01-03T23:07:21.345Z,88.40
2023-01-03T23:10:27.743Z,88.70
2023-01-03T23:13:32.886Z,88.13
2023-01-03T23:16:39.659Z,87.59
2023-01-03T23:19:45.821Z,87.48
2023-01-03T23:22:57.480Z,87.90
2023-01-03T23:25:59.053Z,87.17
2023-01-03T23:29:10.517Z,88.58
2023-01-03T23:32:16.648Z,88.68
2023-01-03T23:35:25.069Z,88.26
2023-01-03T23:38:30.835Z,88.49
2023-01-03T23:41:36.083Z,87.28
2023-01-03T23:44:41.879Z,87.60
2023-01-03T23:47:48.075Z,87.06
2023-01-03T23:50:54.447Z,86.55
2023-01-03T23:54:00.435Z,86.80
2023-01-03T23:57:06.791Z,86.33
